sensor_id;sensor_type;location;lat;lon;timestamp;pressure;altitude;pressure_sealevel;temperature;humidity
59877;BME280;45749;51.140;17.184;2023-08-17T00:00:25;100377.31;;;22.79;84.51
59877;BME280;45749;51.140;17.184;2023-08-17T00:02:51;100381.97;;;22.70;84.87
59877;BME280;45749;51.140;17.184;2023-08-17T00:05:17;100385.59;;;22.63;85.14
59877;BME280;45749;51.140;17.184;2023-08-17T00:07:42;100396.25;;;22.71;85.31
59877;BME280;45749;51.140;17.184;2023-08-17T00:10:08;100402.00;;;22.68;84.97
59877;BME280;45749;51.140;17.184;2023-08-17T00:12:33;100403.88;;;22.67;85.75
59877;BME280;45749;51.140;17.184;2023-08-17T00:14:58;100408.78;;;22.64;85.69
59877;BME280;45749;51.140;17.184;2023-08-17T00:17:24;100410.81;;;22.62;85.71
59877;BME280;45749;51.140;17.184;2023-08-17T00:19:49;100408.78;;;22.64;86.13
59877;BME280;45749;51.140;17.184;2023-08-17T00:22:15;100411.09;;;22.67;86.17
59877;BME280;45749;51.140;17.184;2023-08-17T00:24:40;100418.53;;;22.65;85.96
59877;BME280;45749;51.140;17.184;2023-08-17T00:27:07;100414.34;;;22.62;86.30
59877;BME280;45749;51.140;17.184;2023-08-17T00:29:32;100430.69;;;22.61;86.18
59877;BME280;45749;51.140;17.184;2023-08-17T00:32:00;100425.00;;;22.56;86.81
59877;BME280;45749;51.140;17.184;2023-08-17T00:34:26;100425.38;;;22.53;87.15
59877;BME280;45749;51.140;17.184;2023-08-17T00:36:51;100432.34;;;22.62;87.10
59877;BME280;45749;51.140;17.184;2023-08-17T00:39:16;100443.19;;;22.68;87.28
59877;BME280;45749;51.140;17.184;2023-08-17T00:41:42;100444.00;;;22.69;87.01
59877;BME280;45749;51.140;17.184;2023-08-17T00:44:07;100465.16;;;22.72;87.21
59877;BME280;45749;51.140;17.184;2023-08-17T00:46:32;100526.00;;;22.73;87.04
59877;BME280;45749;51.140;17.184;2023-08-17T00:48:58;100550.31;;;22.65;87.44
59877;BME280;45749;51.140;17.184;2023-08-17T00:51:24;100549.66;;;22.48;86.60
59877;BME280;45749;51.140;17.184;2023-08-17T00:53:50;100550.28;;;22.35;86.12
59877;BME280;45749;51.140;17.184;2023-08-17T00:56:16;100561.56;;;22.31;86.88
59877;BME280;45749;51.140;17.184;2023-08-17T00:58:42;100543.97;;;22.28;87.52
59877;BME280;45749;51.140;17.184;2023-08-17T01:01:08;100559.41;;;22.26;87.60
59877;BME280;45749;51.140;17.184;2023-08-17T01:03:34;100568.78;;;22.30;87.95
59877;BME280;45749;51.140;17.184;2023-08-17T01:05:59;100567.47;;;22.26;87.70
59877;BME280;45749;51.140;17.184;2023-08-17T01:08:28;100576.56;;;22.25;86.40
59877;BME280;45749;51.140;17.184;2023-08-17T01:11:33;100563.50;;;22.22;86.46
59877;BME280;45749;51.140;17.184;2023-08-17T01:17:22;100532.72;;;22.24;86.42
59877;BME280;45749;51.140;17.184;2023-08-17T01:19:50;100525.88;;;22.22;87.28
59877;BME280;45749;51.140;17.184;2023-08-17T01:22:17;100500.00;;;22.21;87.28
59877;BME280;45749;51.140;17.184;2023-08-17T01:24:46;100487.41;;;22.21;86.87
59877;BME280;45749;51.140;17.184;2023-08-17T01:27:11;100474.84;;;22.14;87.32
59877;BME280;45749;51.140;17.184;2023-08-17T01:29:36;100486.69;;;22.05;86.94
59877;BME280;45749;51.140;17.184;2023-08-17T01:32:26;100486.97;;;21.95;86.98
59877;BME280;45749;51.140;17.184;2023-08-17T01:34:58;100460.59;;;21.75;86.75
59877;BME280;45749;51.140;17.184;2023-08-17T01:37:28;100450.56;;;21.69;86.99
59877;BME280;45749;51.140;17.184;2023-08-17T01:39:55;100456.78;;;21.70;87.21
59877;BME280;45749;51.140;17.184;2023-08-17T01:42:22;100446.75;;;21.64;87.31
59877;BME280;45749;51.140;17.184;2023-08-17T01:44:48;100445.69;;;21.50;87.51
59877;BME280;45749;51.140;17.184;2023-08-17T01:47:14;100432.97;;;21.44;88.15
59877;BME280;45749;51.140;17.184;2023-08-17T01:49:39;100419.09;;;21.40;88.53
59877;BME280;45749;51.140;17.184;2023-08-17T01:52:05;100424.47;;;21.32;88.03
59877;BME280;45749;51.140;17.184;2023-08-17T01:54:30;100428.53;;;21.28;88.28
59877;BME280;45749;51.140;17.184;2023-08-17T01:56:56;100436.78;;;21.26;88.79
59877;BME280;45749;51.140;17.184;2023-08-17T01:59:21;100432.72;;;21.30;88.78
59877;BME280;45749;51.140;17.184;2023-08-17T02:01:46;100434.72;;;21.37;89.26
59877;BME280;45749;51.140;17.184;2023-08-17T02:04:11;100422.19;;;21.29;88.79
59877;BME280;45749;51.140;17.184;2023-08-17T02:06:37;100415.13;;;21.28;88.98
59877;BME280;45749;51.140;17.184;2023-08-17T02:09:02;100422.66;;;21.33;89.08
59877;BME280;45749;51.140;17.184;2023-08-17T02:11:27;100424.16;;;21.35;88.45
59877;BME280;45749;51.140;17.184;2023-08-17T02:13:53;100425.84;;;21.28;88.84
59877;BME280;45749;51.140;17.184;2023-08-17T02:16:18;100422.06;;;21.22;88.45
59877;BME280;45749;51.140;17.184;2023-08-17T02:18:43;100409.69;;;21.13;88.83
59877;BME280;45749;51.140;17.184;2023-08-17T02:21:09;100418.00;;;21.26;88.75
59877;BME280;45749;51.140;17.184;2023-08-17T02:23:34;100415.13;;;21.28;89.13
59877;BME280;45749;51.140;17.184;2023-08-17T02:25:59;100413.25;;;21.28;88.30
59877;BME280;45749;51.140;17.184;2023-08-17T02:28:25;100406.00;;;21.14;88.64
59877;BME280;45749;51.140;17.184;2023-08-17T02:30:55;100392.09;;;21.11;89.00
59877;BME280;45749;51.140;17.184;2023-08-17T02:33:20;100408.13;;;21.19;88.73
59877;BME280;45749;51.140;17.184;2023-08-17T02:35:49;100404.72;;;21.25;88.65
59877;BME280;45749;51.140;17.184;2023-08-17T02:38:14;100398.66;;;21.31;89.17
59877;BME280;45749;51.140;17.184;2023-08-17T02:40:39;100387.25;;;21.37;88.63
59877;BME280;45749;51.140;17.184;2023-08-17T02:43:05;100382.53;;;21.39;88.92
59877;BME280;45749;51.140;17.184;2023-08-17T02:45:30;100385.84;;;21.41;88.39
59877;BME280;45749;51.140;17.184;2023-08-17T02:47:55;100378.81;;;21.40;88.64
59877;BME280;45749;51.140;17.184;2023-08-17T02:50:21;100373.63;;;21.39;88.71
59877;BME280;45749;51.140;17.184;2023-08-17T02:52:46;100375.59;;;21.45;89.14
59877;BME280;45749;51.140;17.184;2023-08-17T02:55:11;100378.75;;;21.48;88.47
59877;BME280;45749;51.140;17.184;2023-08-17T02:57:36;100376.06;;;21.48;88.38
59877;BME280;45749;51.140;17.184;2023-08-17T03:00:02;100383.75;;;21.51;88.60
59877;BME280;45749;51.140;17.184;2023-08-17T03:02:27;100385.13;;;21.47;88.54
59877;BME280;45749;51.140;17.184;2023-08-17T03:04:52;100381.44;;;21.48;88.48
59877;BME280;45749;51.140;17.184;2023-08-17T03:07:18;100382.28;;;21.49;88.22
59877;BME280;45749;51.140;17.184;2023-08-17T03:09:43;100384.13;;;21.48;88.64
59877;BME280;45749;51.140;17.184;2023-08-17T03:12:08;100388.50;;;21.49;88.32
59877;BME280;45749;51.140;17.184;2023-08-17T03:14:34;100387.66;;;21.49;88.29
59877;BME280;45749;51.140;17.184;2023-08-17T03:16:59;100383.63;;;21.45;88.09
59877;BME280;45749;51.140;17.184;2023-08-17T03:19:24;100356.69;;;21.38;88.53
59877;BME280;45749;51.140;17.184;2023-08-17T03:21:49;100374.41;;;21.47;88.44
59877;BME280;45749;51.140;17.184;2023-08-17T03:24:15;100378.75;;;21.48;88.07
59877;BME280;45749;51.140;17.184;2023-08-17T03:26:40;100384.47;;;21.45;88.11
59877;BME280;45749;51.140;17.184;2023-08-17T03:29:05;100375.84;;;21.35;88.37
59877;BME280;45749;51.140;17.184;2023-08-17T03:31:31;100400.97;;;21.42;88.52
59877;BME280;45749;51.140;17.184;2023-08-17T03:33:56;100396.59;;;21.41;88.57
59877;BME280;45749;51.140;17.184;2023-08-17T03:36:21;100400.22;;;21.48;88.92
59877;BME280;45749;51.140;17.184;2023-08-17T03:38:47;100406.56;;;21.56;89.03
59877;BME280;45749;51.140;17.184;2023-08-17T03:41:14;100414.88;;;21.61;89.09
59877;BME280;45749;51.140;17.184;2023-08-17T03:43:40;100409.53;;;21.61;88.83
59877;BME280;45749;51.140;17.184;2023-08-17T03:46:05;100407.13;;;21.66;88.84
59877;BME280;45749;51.140;17.184;2023-08-17T03:48:30;100409.81;;;21.66;89.06
59877;BME280;45749;51.140;17.184;2023-08-17T03:50:56;100417.53;;;21.69;89.00
59877;BME280;45749;51.140;17.184;2023-08-17T03:53:21;100417.53;;;21.69;89.26
59877;BME280;45749;51.140;17.184;2023-08-17T03:55:47;100420.31;;;21.75;89.59
59877;BME280;45749;51.140;17.184;2023-08-17T03:58:12;100433.19;;;21.80;89.11
59877;BME280;45749;51.140;17.184;2023-08-17T04:00:38;100426.97;;;21.80;89.37
59877;BME280;45749;51.140;17.184;2023-08-17T04:03:04;100430.50;;;21.80;88.99
59877;BME280;45749;51.140;17.184;2023-08-17T04:05:29;100428.47;;;21.82;89.08
59877;BME280;45749;51.140;17.184;2023-08-17T04:07:54;100426.44;;;21.84;89.26
59877;BME280;45749;51.140;17.184;2023-08-17T04:10:20;100421.06;;;21.84;89.25
59877;BME280;45749;51.140;17.184;2023-08-17T04:12:45;100418.84;;;21.88;89.14
59877;BME280;45749;51.140;17.184;2023-08-17T04:15:10;100417.94;;;21.95;89.22
59877;BME280;45749;51.140;17.184;2023-08-17T04:17:36;100425.63;;;21.98;89.15
59877;BME280;45749;51.140;17.184;2023-08-17T04:20:01;100433.97;;;22.04;89.20
59877;BME280;45749;51.140;17.184;2023-08-17T04:22:26;100444.19;;;22.08;89.59
59877;BME280;45749;51.140;17.184;2023-08-17T04:24:51;100448.78;;;22.14;89.13
59877;BME280;45749;51.140;17.184;2023-08-17T04:27:17;100455.31;;;22.20;89.08
59877;BME280;45749;51.140;17.184;2023-08-17T04:29:42;100454.69;;;22.18;89.03
59877;BME280;45749;51.140;17.184;2023-08-17T04:32:13;100454.03;;;22.16;88.70
59877;BME280;45749;51.140;17.184;2023-08-17T04:34:41;100470.97;;;22.16;88.96
59877;BME280;45749;51.140;17.184;2023-08-17T04:37:06;100477.84;;;22.19;88.58
59877;BME280;45749;51.140;17.184;2023-08-17T04:39:32;100485.56;;;22.22;89.04
59877;BME280;45749;51.140;17.184;2023-08-17T04:41:58;100490.72;;;22.23;88.55
59877;BME280;45749;51.140;17.184;2023-08-17T04:44:23;100496.47;;;22.20;88.25
59877;BME280;45749;51.140;17.184;2023-08-17T04:46:48;100506.38;;;22.20;87.86
59877;BME280;45749;51.140;17.184;2023-08-17T04:49:13;100505.41;;;22.13;87.73
59877;BME280;45749;51.140;17.184;2023-08-17T04:51:39;100505.78;;;22.10;86.97
59877;BME280;45749;51.140;17.184;2023-08-17T04:54:04;100518.09;;;22.04;87.08
59877;BME280;45749;51.140;17.184;2023-08-17T04:56:29;100511.78;;;21.97;86.31
59877;BME280;45749;51.140;17.184;2023-08-17T04:58:54;100499.88;;;21.91;86.84
59877;BME280;45749;51.140;17.184;2023-08-17T05:01:20;100513.16;;;21.93;86.48
59877;BME280;45749;51.140;17.184;2023-08-17T05:03:45;100505.66;;;21.88;86.95
59877;BME280;45749;51.140;17.184;2023-08-17T05:06:11;100518.22;;;21.88;87.27
59877;BME280;45749;51.140;17.184;2023-08-17T05:08:36;100514.53;;;21.89;87.20
59877;BME280;45749;51.140;17.184;2023-08-17T05:11:02;100513.81;;;21.95;87.17
59877;BME280;45749;51.140;17.184;2023-08-17T05:13:27;100516.97;;;21.98;87.19
59877;BME280;45749;51.140;17.184;2023-08-17T05:15:52;100501.84;;;21.97;86.67
59877;BME280;45749;51.140;17.184;2023-08-17T05:18:18;100487.84;;;21.87;86.40
59877;BME280;45749;51.140;17.184;2023-08-17T05:20:43;100511.59;;;21.98;86.90
59877;BME280;45749;51.140;17.184;2023-08-17T05:23:08;100514.69;;;22.10;86.83
59877;BME280;45749;51.140;17.184;2023-08-17T05:25:33;100516.38;;;22.11;86.06
59877;BME280;45749;51.140;17.184;2023-08-17T05:27:59;100503.09;;;22.10;86.62
59877;BME280;45749;51.140;17.184;2023-08-17T05:30:24;100504.13;;;22.09;86.76
59877;BME280;45749;51.140;17.184;2023-08-17T05:32:50;100502.25;;;22.09;86.55
59877;BME280;45749;51.140;17.184;2023-08-17T05:35:15;100508.47;;;22.10;86.07
59877;BME280;45749;51.140;17.184;2023-08-17T05:37:40;100512.81;;;22.11;86.23
59877;BME280;45749;51.140;17.184;2023-08-17T05:40:06;100513.47;;;22.13;85.91
59877;BME280;45749;51.140;17.184;2023-08-17T05:42:33;100508.47;;;22.10;85.73
59877;BME280;45749;51.140;17.184;2023-08-17T05:44:59;100499.13;;;22.06;85.70
59877;BME280;45749;51.140;17.184;2023-08-17T05:47:24;100505.78;;;22.10;86.06
59877;BME280;45749;51.140;17.184;2023-08-17T05:49:49;100499.59;;;22.09;85.73
59877;BME280;45749;51.140;17.184;2023-08-17T05:52:15;100494.00;;;22.11;86.22
59877;BME280;45749;51.140;17.184;2023-08-17T05:54:40;100504.75;;;22.11;86.18
59877;BME280;45749;51.140;17.184;2023-08-17T05:57:07;100495.69;;;22.12;86.27
59877;BME280;45749;51.140;17.184;2023-08-17T05:59:32;100489.66;;;22.10;86.00
59877;BME280;45749;51.140;17.184;2023-08-17T06:01:57;100485.31;;;22.09;85.51
59877;BME280;45749;51.140;17.184;2023-08-17T06:04:23;100470.38;;;22.06;85.80
59877;BME280;45749;51.140;17.184;2023-08-17T06:06:49;100482.75;;;22.15;85.09
59877;BME280;45749;51.140;17.184;2023-08-17T06:09:14;100486.09;;;22.17;85.18
59877;BME280;45749;51.140;17.184;2023-08-17T06:11:40;100487.56;;;22.20;85.43
59877;BME280;45749;51.140;17.184;2023-08-17T06:14:06;100496.66;;;22.19;85.50
59877;BME280;45749;51.140;17.184;2023-08-17T06:16:32;100504.06;;;22.17;85.33
59877;BME280;45749;51.140;17.184;2023-08-17T06:18:57;100494.47;;;22.14;85.67
59877;BME280;45749;51.140;17.184;2023-08-17T06:21:22;100497.69;;;22.18;85.52
59877;BME280;45749;51.140;17.184;2023-08-17T06:23:48;100495.63;;;22.20;85.63
59877;BME280;45749;51.140;17.184;2023-08-17T06:26:13;100490.25;;;22.20;85.28
59877;BME280;45749;51.140;17.184;2023-08-17T06:28:38;100495.09;;;22.24;85.09
59877;BME280;45749;51.140;17.184;2023-08-17T06:31:04;100490.09;;;22.21;85.40
59877;BME280;45749;51.140;17.184;2023-08-17T06:33:29;100495.63;;;22.20;84.85
59877;BME280;45749;51.140;17.184;2023-08-17T06:35:55;100502.97;;;22.26;85.06
59877;BME280;45749;51.140;17.184;2023-08-17T06:38:20;100498.06;;;22.30;85.02
59877;BME280;45749;51.140;17.184;2023-08-17T06:40:45;100493.97;;;22.34;85.13
59877;BME280;45749;51.140;17.184;2023-08-17T06:43:11;100501.88;;;22.35;85.19
59877;BME280;45749;51.140;17.184;2023-08-17T06:45:36;100502.34;;;22.39;85.46
59877;BME280;45749;51.140;17.184;2023-08-17T06:48:02;100512.91;;;22.40;85.49
59877;BME280;45749;51.140;17.184;2023-08-17T06:50:27;100514.84;;;22.46;85.20
59877;BME280;45749;51.140;17.184;2023-08-17T06:52:53;100522.38;;;22.51;85.39
59877;BME280;45749;51.140;17.184;2023-08-17T06:55:19;100516.25;;;22.57;85.03
59877;BME280;45749;51.140;17.184;2023-08-17T06:57:44;100508.31;;;22.64;85.09
59877;BME280;45749;51.140;17.184;2023-08-17T07:00:10;100500.59;;;22.61;85.35
59877;BME280;45749;51.140;17.184;2023-08-17T07:02:39;100505.97;;;22.61;84.75
59877;BME280;45749;51.140;17.184;2023-08-17T07:05:04;100508.19;;;22.57;84.57
59877;BME280;45749;51.140;17.184;2023-08-17T07:07:30;100507.63;;;22.62;84.26
59877;BME280;45749;51.140;17.184;2023-08-17T07:09:59;100509.66;;;22.60;84.08
59877;BME280;45749;51.140;17.184;2023-08-17T07:12:24;100512.66;;;22.65;84.48
59877;BME280;45749;51.140;17.184;2023-08-17T07:14:50;100509.59;;;22.68;85.05
59877;BME280;45749;51.140;17.184;2023-08-17T07:17:15;100510.59;;;22.67;84.65
59877;BME280;45749;51.140;17.184;2023-08-17T07:19:41;100517.19;;;22.79;85.03
59877;BME280;45749;51.140;17.184;2023-08-17T07:22:06;100498.34;;;22.79;84.38
59877;BME280;45749;51.140;17.184;2023-08-17T07:24:31;100515.03;;;22.89;83.99
59877;BME280;45749;51.140;17.184;2023-08-17T07:26:57;100520.03;;;22.92;83.77
59877;BME280;45749;51.140;17.184;2023-08-17T07:29:22;100514.88;;;22.91;83.75
59877;BME280;45749;51.140;17.184;2023-08-17T07:31:48;100523.47;;;22.86;83.02
59877;BME280;45749;51.140;17.184;2023-08-17T07:34:13;100534.00;;;22.96;83.17
59877;BME280;45749;51.140;17.184;2023-08-17T07:36:38;100534.00;;;22.96;83.67
59877;BME280;45749;51.140;17.184;2023-08-17T07:39:04;100524.06;;;22.97;82.78
59877;BME280;45749;51.140;17.184;2023-08-17T07:41:30;100529.34;;;23.05;83.05
59877;BME280;45749;51.140;17.184;2023-08-17T07:43:55;100536.22;;;23.07;82.72
59877;BME280;45749;51.140;17.184;2023-08-17T07:46:20;100531.38;;;23.03;82.58
59877;BME280;45749;51.140;17.184;2023-08-17T07:48:46;100531.38;;;23.03;81.96
59877;BME280;45749;51.140;17.184;2023-08-17T07:51:11;100524.53;;;23.00;82.19
59877;BME280;45749;51.140;17.184;2023-08-17T07:53:37;100532.41;;;23.02;82.74
59877;BME280;45749;51.140;17.184;2023-08-17T07:56:02;100512.63;;;23.09;84.18
59877;BME280;45749;51.140;17.184;2023-08-17T07:58:27;100509.38;;;23.14;82.84
59877;BME280;45749;51.140;17.184;2023-08-17T08:00:53;100502.97;;;23.15;82.32
59877;BME280;45749;51.140;17.184;2023-08-17T08:03:18;100504.38;;;23.11;82.60
59877;BME280;45749;51.140;17.184;2023-08-17T08:05:43;100495.28;;;23.12;82.89
59877;BME280;45749;51.140;17.184;2023-08-17T08:08:09;100485.16;;;23.14;84.21
59877;BME280;45749;51.140;17.184;2023-08-17T08:10:34;100500.84;;;23.10;81.88
59877;BME280;45749;51.140;17.184;2023-08-17T08:12:59;100505.50;;;23.16;82.83
59877;BME280;45749;51.140;17.184;2023-08-17T08:15:25;100501.19;;;23.22;82.81
59877;BME280;45749;51.140;17.184;2023-08-17T08:17:50;100507.03;;;23.26;83.58
59877;BME280;45749;51.140;17.184;2023-08-17T08:20:15;100505.22;;;23.33;83.22
59877;BME280;45749;51.140;17.184;2023-08-17T08:22:41;100496.41;;;23.39;83.22
59877;BME280;45749;51.140;17.184;2023-08-17T08:25:06;100495.63;;;23.45;82.99
59877;BME280;45749;51.140;17.184;2023-08-17T08:27:32;100490.16;;;23.53;83.00
59877;BME280;45749;51.140;17.184;2023-08-17T08:29:57;100493.28;;;23.57;83.68
59877;BME280;45749;51.140;17.184;2023-08-17T08:32:23;100493.97;;;23.65;83.57
59877;BME280;45749;51.140;17.184;2023-08-17T08:34:50;100489.22;;;23.68;83.06
59877;BME280;45749;51.140;17.184;2023-08-17T08:37:16;100496.13;;;23.70;82.21
59877;BME280;45749;51.140;17.184;2023-08-17T08:39:51;100500.38;;;23.79;82.11
59877;BME280;45749;51.140;17.184;2023-08-17T08:42:18;100501.19;;;23.80;82.00
59877;BME280;45749;51.140;17.184;2023-08-17T08:44:44;100492.28;;;23.79;82.12
59877;BME280;45749;51.140;17.184;2023-08-17T08:47:10;100504.19;;;23.92;81.58
59877;BME280;45749;51.140;17.184;2023-08-17T08:49:40;100502.31;;;23.92;81.87
59877;BME280;45749;51.140;17.184;2023-08-17T08:52:12;100503.81;;;23.95;82.12
59877;BME280;45749;51.140;17.184;2023-08-17T08:54:40;100508.63;;;23.99;82.33
59877;BME280;45749;51.140;17.184;2023-08-17T08:57:12;100510.06;;;24.02;81.85
59877;BME280;45749;51.140;17.184;2023-08-17T08:59:39;100513.28;;;24.12;81.09
59877;BME280;45749;51.140;17.184;2023-08-17T09:02:13;100497.31;;;24.10;81.41
59877;BME280;45749;51.140;17.184;2023-08-17T09:04:39;100503.00;;;24.22;81.31
59877;BME280;45749;51.140;17.184;2023-08-17T09:07:06;100503.44;;;24.26;81.11
59877;BME280;45749;51.140;17.184;2023-08-17T09:09:31;100500.34;;;24.29;81.44
59877;BME280;45749;51.140;17.184;2023-08-17T09:11:57;100499.09;;;24.31;80.92
59877;BME280;45749;51.140;17.184;2023-08-17T09:14:22;100495.19;;;24.34;81.17
59877;BME280;45749;51.140;17.184;2023-08-17T09:16:48;100497.56;;;24.44;80.92
59877;BME280;45749;51.140;17.184;2023-08-17T09:19:14;100483.50;;;24.48;82.26
59877;BME280;45749;51.140;17.184;2023-08-17T09:21:39;100492.09;;;24.65;80.99
59877;BME280;45749;51.140;17.184;2023-08-17T09:24:06;100493.56;;;24.74;80.68
59877;BME280;45749;51.140;17.184;2023-08-17T09:26:32;100493.84;;;24.86;80.96
59877;BME280;45749;51.140;17.184;2023-08-17T09:28:59;100487.44;;;24.94;80.01
59877;BME280;45749;51.140;17.184;2023-08-17T09:31:24;100478.97;;;25.03;80.65
59877;BME280;45749;51.140;17.184;2023-08-17T09:33:50;100478.44;;;25.15;81.16
59877;BME280;45749;51.140;17.184;2023-08-17T09:36:20;100490.72;;;25.24;79.98
59877;BME280;45749;51.140;17.184;2023-08-17T09:38:48;100478.66;;;25.26;78.78
59877;BME280;45749;51.140;17.184;2023-08-17T09:41:14;100481.59;;;25.32;79.66
59877;BME280;45749;51.140;17.184;2023-08-17T09:43:40;100481.78;;;25.37;79.93
59877;BME280;45749;51.140;17.184;2023-08-17T09:46:06;100478.09;;;25.51;81.34
59877;BME280;45749;51.140;17.184;2023-08-17T09:48:32;100488.91;;;25.64;80.79
59877;BME280;45749;51.140;17.184;2023-08-17T09:50:58;100486.22;;;25.71;79.68
59877;BME280;45749;51.140;17.184;2023-08-17T09:53:24;100478.72;;;25.66;79.51
59877;BME280;45749;51.140;17.184;2023-08-17T09:55:50;100479.34;;;25.68;77.94
59877;BME280;45749;51.140;17.184;2023-08-17T09:58:16;100480.00;;;25.70;78.64
59877;BME280;45749;51.140;17.184;2023-08-17T10:00:44;100477.91;;;25.72;78.30
59877;BME280;45749;51.140;17.184;2023-08-17T10:03:11;100472.34;;;25.81;78.28
59877;BME280;45749;51.140;17.184;2023-08-17T10:05:40;100466.72;;;25.89;78.56
59877;BME280;45749;51.140;17.184;2023-08-17T10:08:06;100466.09;;;25.93;78.87
59877;BME280;45749;51.140;17.184;2023-08-17T10:10:35;100469.41;;;25.95;76.01
59877;BME280;45749;51.140;17.184;2023-08-17T10:15:57;100466.69;;;26.02;76.69
59877;BME280;45749;51.140;17.184;2023-08-17T10:18:42;100468.97;;;26.12;77.11
59877;BME280;45749;51.140;17.184;2023-08-17T10:21:14;100457.97;;;26.20;77.35
59877;BME280;45749;51.140;17.184;2023-08-17T10:23:44;100451.28;;;26.36;77.24
59877;BME280;45749;51.140;17.184;2023-08-17T10:26:11;100459.38;;;26.42;76.24
59877;BME280;45749;51.140;17.184;2023-08-17T10:28:37;100456.03;;;26.47;77.21
59877;BME280;45749;51.140;17.184;2023-08-17T10:31:03;100450.00;;;26.52;77.04
59877;BME280;45749;51.140;17.184;2023-08-17T10:33:29;100454.34;;;26.66;77.13
59877;BME280;45749;51.140;17.184;2023-08-17T10:35:55;100455.13;;;26.73;75.84
59877;BME280;45749;51.140;17.184;2023-08-17T10:38:21;100443.06;;;26.76;75.92
59877;BME280;45749;51.140;17.184;2023-08-17T10:41:10;100447.16;;;26.85;76.13
59877;BME280;45749;51.140;17.184;2023-08-17T10:43:55;100437.59;;;26.89;76.26
59877;BME280;45749;51.140;17.184;2023-08-17T10:46:21;100441.09;;;26.96;74.80
59877;BME280;45749;51.140;17.184;2023-08-17T10:48:46;100435.25;;;26.99;75.54
59877;BME280;45749;51.140;17.184;2023-08-17T10:51:12;100433.09;;;27.08;75.16
59877;BME280;45749;51.140;17.184;2023-08-17T10:53:39;100440.38;;;27.14;74.92
59877;BME280;45749;51.140;17.184;2023-08-17T10:56:11;100440.38;;;27.14;72.87
59877;BME280;45749;51.140;17.184;2023-08-17T10:58:36;100432.06;;;27.16;74.40
59877;BME280;45749;51.140;17.184;2023-08-17T11:01:02;100427.41;;;27.23;73.78
59877;BME280;45749;51.140;17.184;2023-08-17T11:03:27;100433.22;;;27.26;73.52
59877;BME280;45749;51.140;17.184;2023-08-17T11:05:55;100430.09;;;27.29;73.21
59877;BME280;45749;51.140;17.184;2023-08-17T11:08:29;100427.31;;;27.36;73.00
59877;BME280;45749;51.140;17.184;2023-08-17T11:11:08;100428.72;;;27.45;72.80
59877;BME280;45749;51.140;17.184;2023-08-17T11:13:37;100432.66;;;27.49;72.32
59877;BME280;45749;51.140;17.184;2023-08-17T11:16:04;100425.34;;;27.50;71.94
59877;BME280;45749;51.140;17.184;2023-08-17T11:18:30;100427.19;;;27.56;73.31
59877;BME280;45749;51.140;17.184;2023-08-17T11:20:56;100423.34;;;27.64;69.94
59877;BME280;45749;51.140;17.184;2023-08-17T11:23:22;100415.66;;;27.60;71.48
59877;BME280;45749;51.140;17.184;2023-08-17T11:25:49;100415.16;;;27.70;71.28
59877;BME280;45749;51.140;17.184;2023-08-17T11:28:16;100411.00;;;27.74;71.74
59877;BME280;45749;51.140;17.184;2023-08-17T11:30:41;100422.38;;;27.83;71.46
59877;BME280;45749;51.140;17.184;2023-08-17T11:33:07;100414.56;;;27.93;71.72
59877;BME280;45749;51.140;17.184;2023-08-17T11:35:33;100418.53;;;27.97;70.38
59877;BME280;45749;51.140;17.184;2023-08-17T11:37:59;100418.28;;;27.99;69.22
59877;BME280;45749;51.140;17.184;2023-08-17T11:40:25;100418.06;;;28.00;69.17
59877;BME280;45749;51.140;17.184;2023-08-17T11:42:51;100416.31;;;28.06;70.39
59877;BME280;45749;51.140;17.184;2023-08-17T11:45:17;100421.03;;;28.17;70.32
59877;BME280;45749;51.140;17.184;2023-08-17T11:47:43;100417.63;;;28.22;69.88
59877;BME280;45749;51.140;17.184;2023-08-17T11:50:11;100422.59;;;28.25;69.40
59877;BME280;45749;51.140;17.184;2023-08-17T11:52:37;100422.28;;;28.33;69.26
59877;BME280;45749;51.140;17.184;2023-08-17T11:55:04;100428.28;;;28.42;69.05
59877;BME280;45749;51.140;17.184;2023-08-17T11:57:34;100430.81;;;28.43;67.56
59877;BME280;45749;51.140;17.184;2023-08-17T12:00:00;100438.88;;;28.50;68.77
59877;BME280;45749;51.140;17.184;2023-08-17T12:02:26;100426.13;;;28.50;68.08
59877;BME280;45749;51.140;17.184;2023-08-17T12:04:53;100426.41;;;28.61;68.79
59877;BME280;45749;51.140;17.184;2023-08-17T12:07:19;100424.44;;;28.68;68.91
59877;BME280;45749;51.140;17.184;2023-08-17T12:09:45;100420.56;;;28.75;68.87
59877;BME280;45749;51.140;17.184;2023-08-17T12:12:11;100419.91;;;28.80;69.69
59877;BME280;45749;51.140;17.184;2023-08-17T12:14:41;100415.91;;;28.83;67.35
59877;BME280;45749;51.140;17.184;2023-08-17T12:17:06;100419.19;;;28.85;66.85
59877;BME280;45749;51.140;17.184;2023-08-17T12:19:32;100409.50;;;28.77;68.15
59877;BME280;45749;51.140;17.184;2023-08-17T12:21:57;100412.03;;;28.90;67.97
59877;BME280;45749;51.140;17.184;2023-08-17T12:24:26;100409.94;;;28.92;68.62
59877;BME280;45749;51.140;17.184;2023-08-17T12:26:51;100409.44;;;28.95;67.96
59877;BME280;45749;51.140;17.184;2023-08-17T12:29:17;100409.63;;;29.01;67.82
59877;BME280;45749;51.140;17.184;2023-08-17T12:31:42;100398.91;;;29.06;66.68
59877;BME280;45749;51.140;17.184;2023-08-17T12:34:07;100400.91;;;29.10;67.00
59877;BME280;45749;51.140;17.184;2023-08-17T12:36:33;100399.47;;;29.08;65.20
59877;BME280;45749;51.140;17.184;2023-08-17T12:39:00;100397.84;;;29.07;66.73
59877;BME280;45749;51.140;17.184;2023-08-17T12:41:26;100385.69;;;29.09;64.53